Time;durP1;ratioP1;P1;durP2;ratioP2;P2;SDS_P1;SDS_P2;PMS_P1;PMS_P2;Temp;Humidity;BMP_temperature;BMP_pressure;BME280_temperature;BME280_humidity;BME280_pressure;Samples;Min_cycle;Max_cycle;Signal;HPM_P1;HPM_P2
2023/03/25 00:02:04;;;;;;;12.18;6.13;;;15.90;67.80;;;;;;5984176;29;20086;-71
2023/03/25 00:05:06;;;;;;;15.27;6.30;;;15.80;67.80;;;;;;5982647;29;20026;-72
2023/03/25 00:08:07;;;;;;;9.60;5.25;;;15.80;67.90;;;;;;5982544;29;20037;-72
2023/03/25 00:11:08;;;;;;;13.63;5.13;;;15.70;67.90;;;;;;5983985;29;20036;-72
2023/03/25 00:14:11;;;;;;;12.25;6.28;;;15.70;67.90;;;;;;5982746;29;20030;-72
2023/03/25 00:17:12;;;;;;;11.05;5.45;;;15.60;67.70;;;;;;5983943;29;20113;-72
2023/03/25 00:20:13;;;;;;;9.25;5.50;;;15.50;67.70;;;;;;5981988;29;20177;-71
2023/03/25 00:23:15;;;;;;;12.35;5.78;;;15.50;67.80;;;;;;5990848;29;20129;-73
2023/03/25 00:26:17;;;;;;;11.43;6.13;;;15.40;67.80;;;;;;6005023;29;20082;-72
2023/03/25 00:29:18;;;;;;;11.85;6.78;;;15.40;67.90;;;;;;6006082;29;20128;-73
2023/03/25 00:32:20;;;;;;;13.88;6.82;;;15.40;68.10;;;;;;6005294;29;20431;-72
2023/03/25 00:35:22;;;;;;;11.25;5.97;;;15.40;68.30;;;;;;6006090;29;20025;-71
2023/03/25 00:38:33;;;;;;;14.95;6.50;;;15.40;68.20;;;;;;6037808;29;20030;-71
2023/03/25 00:41:36;;;;;;;11.95;6.25;;;15.40;68.10;;;;;;6007294;29;20475;-73
2023/03/25 00:44:36;;;;;;;10.80;5.60;;;15.40;67.90;;;;;;6021342;29;20045;-72
2023/03/25 00:47:38;;;;;;;10.20;5.35;;;15.40;67.90;;;;;;6033108;29;20033;-70
2023/03/25 00:50:40;;;;;;;9.52;5.28;;;15.40;67.80;;;;;;6010128;29;20148;-71
2023/03/25 00:53:41;;;;;;;8.90;5.47;;;15.40;67.90;;;;;;5994855;29;20061;-73
2023/03/25 00:56:43;;;;;;;9.48;5.43;;;15.40;67.70;;;;;;5983903;29;20027;-73
2023/03/25 00:59:44;;;;;;;9.65;5.03;;;15.40;67.60;;;;;;5983532;29;20034;-72
2023/03/25 01:02:52;;;;;;;11.80;4.97;;;15.40;67.40;;;;;;5981297;29;20065;-72
2023/03/25 01:05:56;;;;;;;10.13;5.10;;;15.40;67.40;;;;;;6014453;29;20034;-72
2023/03/25 01:08:58;;;;;;;11.10;5.97;;;15.40;67.10;;;;;;6016527;29;20030;-72
2023/03/25 01:11:59;;;;;;;16.08;5.72;;;15.40;67.00;;;;;;6016539;29;20118;-73
2023/03/25 01:15:00;;;;;;;14.27;5.75;;;15.40;66.90;;;;;;6016751;29;20420;-73
2023/03/25 01:18:02;;;;;;;14.25;5.20;;;15.40;66.90;;;;;;5989500;29;20033;-72
2023/03/25 01:21:05;;;;;;;13.95;5.43;;;15.40;66.80;;;;;;6016213;29;20027;-72
2023/03/25 01:24:10;;;;;;;10.60;5.57;;;15.40;66.70;;;;;;6016230;29;20061;-72
2023/03/25 01:27:11;;;;;;;10.60;5.72;;;15.40;66.70;;;;;;6016178;29;20054;-72
2023/03/25 01:30:12;;;;;;;14.30;6.93;;;15.30;66.60;;;;;;6015998;29;20040;-73
2023/03/25 01:33:16;;;;;;;12.93;7.55;;;15.30;66.60;;;;;;6016183;29;20042;-71
2023/03/25 01:36:17;;;;;;;19.88;7.53;;;15.30;66.70;;;;;;5987042;29;20022;-73
2023/03/25 01:39:18;;;;;;;20.17;10.07;;;15.30;66.90;;;;;;6015944;29;20064;-74
2023/03/25 01:42:19;;;;;;;16.67;8.93;;;15.20;67.20;;;;;;5986571;29;20428;-74
2023/03/25 01:45:21;;;;;;;16.20;7.40;;;15.20;67.70;;;;;;6016002;29;20452;-72
2023/03/25 01:48:27;;;;;;;14.32;6.82;;;15.30;68.60;;;;;;6015712;29;20034;-72
2023/03/25 01:51:33;;;;;;;13.73;6.68;;;15.10;67.60;;;;;;5986705;29;20068;-73
2023/03/25 01:54:37;;;;;;;18.25;5.07;;;15.10;67.60;;;;;;6000460;29;20391;-71
2023/03/25 01:57:44;;;;;;;14.95;4.97;;;15.10;68.50;;;;;;5986378;29;20421;-72
2023/03/25 02:00:47;;;;;;;10.90;4.50;;;15.10;67.20;;;;;;5999762;29;20062;-73
2023/03/25 02:04:01;;;;;;;12.82;5.03;;;15.10;66.90;;;;;;5999881;29;20030;-72
2023/03/25 02:07:06;;;;;;;13.68;3.92;;;15.10;66.60;;;;;;6015208;29;20448;-73
2023/03/25 02:10:10;;;;;;;10.13;4.75;;;15.10;66.40;;;;;;5999507;29;20090;-71
2023/03/25 02:13:11;;;;;;;15.35;4.40;;;15.10;66.10;;;;;;5984877;29;20095;-73
2023/03/25 02:16:28;;;;;;;9.38;3.95;;;15.10;66.00;;;;;;6014398;29;20034;-72
2023/03/25 02:20:01;;;;;;;7.88;3.33;;;15.10;65.90;;;;;;5985929;29;20156;-70
2023/03/25 02:23:27;;;;;;;7.65;4.07;;;15.10;65.70;;;;;;5977274;29;20066;-71
2023/03/25 02:26:55;;;;;;;10.05;4.45;;;15.10;65.40;;;;;;5992441;29;20022;-72
2023/03/25 02:30:22;;;;;;;10.02;4.20;;;15.10;65.00;;;;;;5963116;29;20524;-72
2023/03/25 02:34:02;;;;;;;9.32;4.07;;;15.10;65.00;;;;;;5992285;29;20110;-72
2023/03/25 02:37:47;;;;;;;9.27;3.92;;;15.10;65.00;;;;;;5982192;29;20484;-73
2023/03/25 02:41:20;;;;;;;12.10;3.63;;;15.10;64.70;;;;;;5967109;29;20042;-71
2023/03/25 02:45:09;;;;;;;4.57;2.58;;;15.10;64.50;;;;;;5967428;29;20029;-70
2023/03/25 02:48:26;;;;;;;15.48;3.40;;;15.10;64.00;;;;;;5914871;30;20590;-72
2023/03/25 02:51:34;;;;;;;11.57;3.90;;;15.20;63.20;;;;;;5915201;30;20119;-73
2023/03/25 02:54:40;;;;;;;8.38;3.70;;;15.20;63.00;;;;;;5900022;30;20106;-72
2023/03/25 02:57:44;;;;;;;9.68;4.68;;;15.20;63.00;;;;;;5900071;30;20036;-72
2023/03/25 03:00:47;;;;;;;13.38;5.57;;;15.20;63.20;;;;;;5899533;30;20083;-71
2023/03/25 03:03:48;;;;;;;15.95;7.03;;;15.20;63.50;;;;;;5914781;30;20048;-71
2023/03/25 03:06:49;;;;;;;18.05;7.72;;;15.30;64.00;;;;;;5888261;30;20051;-72
2023/03/25 03:09:58;;;;;;;15.15;6.72;;;15.20;64.40;;;;;;5877613;30;20036;-73
2023/03/25 03:13:23;;;;;;;12.70;6.38;;;15.10;64.90;;;;;;5877722;30;20769;-72
2023/03/25 03:16:35;;;;;;;11.13;5.13;;;15.10;65.30;;;;;;5907874;30;20032;-72
2023/03/25 03:19:47;;;;;;;8.85;4.35;;;15.00;65.40;;;;;;5892825;30;20131;-72
2023/03/25 03:23:32;;;;;;;9.35;4.43;;;15.00;65.50;;;;;;5894013;29;20126;-72
2023/03/25 03:26:48;;;;;;;18.73;5.93;;;15.00;65.40;;;;;;5989629;29;20172;-72
2023/03/25 03:29:54;;;;;;;18.65;5.85;;;14.90;65.30;;;;;;6019774;29;20040;-72
2023/03/25 03:33:01;;;;;;;13.90;5.28;;;14.90;65.30;;;;;;6006392;29;20038;-71
2023/03/25 03:36:09;;;;;;;9.10;4.43;;;14.90;65.40;;;;;;6027078;29;20099;-70
2023/03/25 03:39:23;;;;;;;;;;;14.90;65.40;;;;;;6001271;29;20053;-71
2023/03/25 03:42:49;;;;;;;10.73;3.95;;;14.90;65.40;;;;;;5978366;29;19920;-71
2023/03/25 03:45:54;;;;;;;8.70;3.10;;;14.90;65.00;;;;;;5990000;29;20030;-72
2023/03/25 03:48:59;;;;;;;6.93;2.33;;;14.90;64.80;;;;;;6014731;29;20049;-72
2023/03/25 03:52:12;;;;;;;7.90;2.15;;;14.80;64.60;;;;;;6026283;29;20038;-73
2023/03/25 03:55:20;;;;;;;8.38;2.85;;;14.90;64.40;;;;;;6002397;29;20042;-72
2023/03/25 03:58:27;;;;;;;19.25;3.80;;;14.80;63.90;;;;;;5982295;29;20043;-72
2023/03/25 04:01:33;;;;;;;13.15;4.18;;;14.80;63.80;;;;;;5983898;29;20031;-72
2023/03/25 04:04:37;;;;;;;10.00;4.05;;;14.80;63.80;;;;;;5982554;29;20252;-72
2023/03/25 04:07:40;;;;;;;11.35;4.50;;;14.90;63.80;;;;;;5987762;29;20386;-72
2023/03/25 04:10:53;;;;;;;7.45;3.92;;;14.80;64.70;;;;;;6006304;29;20026;-71
2023/03/25 04:13:58;;;;;;;10.60;3.90;;;14.70;64.00;;;;;;6005436;29;20153;-72
2023/03/25 04:16:59;;;;;;;8.95;3.90;;;14.70;64.10;;;;;;6007111;29;20072;-71
2023/03/25 04:20:07;;;;;;;16.40;3.35;;;14.70;64.20;;;;;;5992261;29;20038;-71
2023/03/25 04:23:14;;;;;;;7.57;3.70;;;14.60;64.20;;;;;;6006988;29;20033;-71
2023/03/25 04:26:16;;;;;;;6.90;3.50;;;14.60;64.20;;;;;;6006848;29;20060;-71
2023/03/25 04:29:17;;;;;;;5.03;2.75;;;14.60;64.10;;;;;;6005209;29;20030;-73
2023/03/25 04:32:18;;;;;;;14.65;3.53;;;14.60;64.10;;;;;;6006342;29;20452;-71
2023/03/25 04:35:20;;;;;;;5.75;3.08;;;14.60;64.00;;;;;;6006151;29;20137;-73
2023/03/25 04:38:21;;;;;;;8.38;2.92;;;14.50;63.90;;;;;;6005986;29;20379;-72
2023/03/25 04:41:22;;;;;;;5.80;3.60;;;14.50;64.20;;;;;;6009028;29;20041;-73
2023/03/25 04:44:24;;;;;;;11.20;3.50;;;14.40;64.00;;;;;;6010896;29;20037;-71
2023/03/25 04:47:26;;;;;;;13.18;5.35;;;14.40;64.10;;;;;;6009104;29;20038;-72
2023/03/25 04:50:28;;;;;;;5.97;3.95;;;14.40;64.50;;;;;;6010713;29;20037;-72
2023/03/25 04:53:30;;;;;;;14.68;4.72;;;14.50;65.10;;;;;;6001479;29;20033;-73
2023/03/25 04:56:31;;;;;;;6.32;3.45;;;14.30;65.20;;;;;;5987769;29;20045;-73
2023/03/25 04:59:32;;;;;;;8.43;4.30;;;14.30;65.40;;;;;;5985690;29;20034;-73
2023/03/25 05:02:33;;;;;;;8.27;3.55;;;14.30;65.40;;;;;;6001347;29;20551;-72
2023/03/25 05:05:34;;;;;;;5.63;3.22;;;14.20;65.40;;;;;;6003988;29;20034;-72
2023/03/25 05:08:35;;;;;;;9.63;3.03;;;14.20;65.60;;;;;;6010172;29;20188;-74
2023/03/25 05:11:38;;;;;;;4.78;2.92;;;14.10;65.60;;;;;;6010355;29;20070;-75
2023/03/25 05:14:39;;;;;;;3.30;2.35;;;14.20;65.70;;;;;;6040020;29;20030;-73
2023/03/25 05:17:40;;;;;;;12.77;3.42;;;14.20;65.60;;;;;;6007362;29;20061;-73
2023/03/25 05:20:43;;;;;;;6.30;2.80;;;14.20;65.60;;;;;;5985664;29;20042;-72
2023/03/25 05:23:45;;;;;;;6.35;2.33;;;14.10;65.50;;;;;;5985725;29;20026;-71
2023/03/25 05:26:46;;;;;;;4.45;2.10;;;14.10;65.50;;;;;;5986153;29;20035;-73
2023/03/25 05:29:47;;;;;;;4.85;2.17;;;14.10;65.50;;;;;;5987149;29;20026;-74
2023/03/25 05:32:49;;;;;;;10.13;3.10;;;14.20;65.40;;;;;;6016514;29;20484;-72
2023/03/25 05:35:50;;;;;;;5.78;2.42;;;14.20;65.30;;;;;;6016419;29;20074;-75
2023/03/25 05:38:57;;;;;;;5.18;2.53;;;14.20;65.20;;;;;;5985273;29;20065;-72
2023/03/25 05:42:01;;;;;;;4.88;2.22;;;14.10;65.20;;;;;;5985583;29;20421;-74
2023/03/25 05:45:02;;;;;;;6.45;2.13;;;14.10;65.20;;;;;;5985472;29;20382;-74
2023/03/25 05:48:04;;;;;;;3.92;2.17;;;14.10;65.10;;;;;;6016145;29;20127;-73
2023/03/25 05:51:12;;;;;;;8.88;2.47;;;14.10;65.80;;;;;;5987736;29;20061;-73
2023/03/25 05:54:13;;;;;;;11.32;2.92;;;14.10;65.00;;;;;;5987159;29;20035;-72
2023/03/25 05:57:14;;;;;;;3.47;2.30;;;14.10;65.00;;;;;;6015855;29;20073;-72
2023/03/25 06:00:18;;;;;;;5.53;2.22;;;14.10;65.00;;;;;;5984706;29;20121;-73
2023/03/25 06:03:20;;;;;;;9.00;1.90;;;14.10;64.90;;;;;;6015506;29;20030;-71
2023/03/25 06:06:24;;;;;;;6.50;2.00;;;14.10;64.50;;;;;;5986366;29;20023;-73
2023/03/25 06:09:29;;;;;;;5.80;2.15;;;14.10;63.90;;;;;;5985246;29;20045;-72
2023/03/25 06:12:37;;;;;;;7.75;2.53;;;14.10;63.70;;;;;;5999919;29;20043;-72
2023/03/25 06:15:40;;;;;;;4.70;1.90;;;14.10;63.80;;;;;;5987201;29;20038;-73
2023/03/25 06:18:41;;;;;;;3.33;1.75;;;14.10;63.70;;;;;;6018726;29;20027;-73
2023/03/25 06:21:42;;;;;;;4.30;1.92;;;14.10;63.40;;;;;;5992775;29;20508;-73
2023/03/25 06:24:43;;;;;;;3.70;1.80;;;14.10;63.20;;;;;;5987182;29;20091;-71
2023/03/25 06:27:47;;;;;;;6.18;2.50;;;14.10;63.20;;;;;;6015910;29;20387;-70
2023/03/25 06:30:48;;;;;;;5.32;2.20;;;14.10;63.00;;;;;;6002640;29;20105;-73
2023/03/25 06:33:51;;;;;;;7.88;2.35;;;14.10;63.00;;;;;;6005556;29;20049;-72
2023/03/25 06:36:52;;;;;;;2.10;1.50;;;14.10;62.90;;;;;;5987151;29;20039;-75
2023/03/25 06:39:55;;;;;;;5.82;1.73;;;14.10;62.90;;;;;;6016180;29;20041;-72
2023/03/25 06:42:57;;;;;;;3.40;1.98;;;14.10;62.80;;;;;;6000715;29;20030;-75
2023/03/25 06:46:21;;;;;;;7.40;1.45;;;14.10;62.80;;;;;;5986368;29;20038;-71
2023/03/25 06:49:53;;;;;;;15.05;1.85;;;14.20;62.50;;;;;;5980898;29;20034;-71
2023/03/25 06:52:54;;;;;;;15.50;1.88;;;14.20;62.20;;;;;;5989371;29;20030;-74
2023/03/25 06:55:56;;;;;;;2.95;1.65;;;14.30;62.10;;;;;;5985177;29;20042;-73
2023/03/25 06:58:57;;;;;;;4.60;1.55;;;14.40;62.00;;;;;;6014114;29;20041;-72
2023/03/25 07:01:58;;;;;;;5.15;1.80;;;14.40;61.80;;;;;;5985056;29;20113;-72
2023/03/25 07:04:59;;;;;;;2.38;1.17;;;14.40;61.60;;;;;;5984602;29;20120;-73
2023/03/25 07:08:01;;;;;;;2.05;1.73;;;14.50;61.30;;;;;;6014149;29;20041;-72
2023/03/25 07:11:06;;;;;;;3.92;1.60;;;14.50;61.00;;;;;;5983726;29;20050;-73
2023/03/25 07:14:09;;;;;;;1.92;1.30;;;14.60;60.90;;;;;;6013739;29;20081;-72
2023/03/25 07:17:11;;;;;;;3.00;1.52;;;14.70;60.80;;;;;;5985224;29;20630;-72
2023/03/25 07:20:12;;;;;;;2.92;1.85;;;14.90;60.60;;;;;;5994186;29;20072;-71
2023/03/25 07:23:13;;;;;;;7.63;1.75;;;15.00;60.20;;;;;;5961476;29;20034;-72
2023/03/25 07:26:14;;;;;;;7.57;1.73;;;15.20;59.90;;;;;;5962018;29;20046;-73
2023/03/25 07:29:15;;;;;;;9.27;2.17;;;15.20;59.50;;;;;;5962018;29;20080;-72
2023/03/25 07:32:16;;;;;;;3.17;1.70;;;15.40;59.30;;;;;;5991371;29;20031;-70
2023/03/25 07:35:17;;;;;;;7.93;2.28;;;15.40;59.20;;;;;;5991121;29;20054;-73
2023/03/25 07:47:03;;;;;;;;;;;15.50;58.90;;;;;;5968567;29;20031;-70
2023/03/25 07:50:05;;;;;;;3.92;1.58;;;15.50;58.70;;;;;;5998941;29;19951;-72
2023/03/25 07:53:06;;;;;;;4.25;1.70;;;15.50;58.50;;;;;;5995504;29;20034;-72
2023/03/25 08:40:58;;;;;;;2.20;1.40;;;16.80;53.00;;;;;;5988003;29;20163;-72
2023/03/25 08:43:59;;;;;;;2.60;1.10;;;16.90;52.70;;;;;;5987784;29;20023;-72
2023/03/25 08:47:00;;;;;;;10.82;1.30;;;17.00;52.70;;;;;;5987434;29;20019;-72
2023/03/25 08:50:01;;;;;;;8.70;1.75;;;17.10;52.80;;;;;;6018042;29;20360;-71
2023/03/25 08:53:02;;;;;;;4.05;1.50;;;17.40;52.70;;;;;;6017660;29;20079;-72
2023/03/25 08:56:04;;;;;;;2.58;1.15;;;17.30;52.40;;;;;;5989614;29;20023;-73
2023/03/25 08:59:05;;;;;;;6.03;1.30;;;17.40;52.30;;;;;;5987548;29;20109;-73
2023/03/25 09:02:08;;;;;;;5.88;1.23;;;17.40;51.90;;;;;;6000160;29;20097;-74
2023/03/25 09:05:11;;;;;;;4.95;1.42;;;17.40;52.10;;;;;;5993357;29;20107;-72
2023/03/25 09:08:13;;;;;;;4.68;1.48;;;17.60;52.00;;;;;;5987809;29;20058;-72
2023/03/25 09:11:15;;;;;;;3.63;1.60;;;17.90;51.70;;;;;;5986746;29;20062;-72
2023/03/25 09:14:16;;;;;;;4.18;1.30;;;18.10;51.30;;;;;;5987597;29;20090;-73
2023/03/25 09:17:17;;;;;;;4.75;1.58;;;18.30;50.80;;;;;;5986823;29;20479;-73
2023/03/25 09:20:19;;;;;;;4.75;1.67;;;18.40;49.80;;;;;;5979288;29;20031;-74
2023/03/25 09:23:20;;;;;;;3.25;1.48;;;18.30;49.60;;;;;;5979768;29;20027;-73
2023/03/25 09:26:21;;;;;;;8.32;1.63;;;18.30;49.70;;;;;;5994334;29;20031;-73
2023/03/25 09:29:22;;;;;;;6.50;1.40;;;18.30;49.50;;;;;;5963846;29;20113;-71
2023/03/25 09:32:24;;;;;;;8.45;1.38;;;18.40;49.30;;;;;;5965135;29;20043;-71
2023/03/25 09:35:25;;;;;;;4.78;1.48;;;18.40;49.00;;;;;;5966534;29;20030;-74
2023/03/25 09:38:26;;;;;;;5.78;1.40;;;18.50;48.70;;;;;;5968385;29;20053;-72
2023/03/25 09:41:30;;;;;;;5.28;1.90;;;18.40;48.30;;;;;;6001237;29;20117;-72
2023/03/25 09:45:02;;;;;;;6.22;1.52;;;18.40;48.30;;;;;;6016139;29;20356;-71
2023/03/25 09:48:23;;;;;;;3.10;0.93;;;18.50;48.60;;;;;;5993509;29;20030;-72
2023/03/25 09:51:29;;;;;;;5.40;1.23;;;18.60;47.70;;;;;;5964411;29;20027;-72
2023/03/25 09:54:36;;;;;;;3.80;1.35;;;18.60;47.50;;;;;;5963225;29;20034;-72
2023/03/25 09:57:47;;;;;;;7.28;1.88;;;18.60;47.50;;;;;;5993271;29;20035;-72
2023/03/25 10:00:59;;;;;;;8.68;1.73;;;18.60;47.30;;;;;;5962113;29;20034;-72
2023/03/25 10:04:30;;;;;;;4.97;1.30;;;18.70;47.40;;;;;;5962817;29;20136;-73
2023/03/25 10:07:37;;;;;;;4.65;1.50;;;18.90;47.40;;;;;;5986214;29;20102;-72
2023/03/25 10:11:05;;;;;;;11.20;1.90;;;19.10;47.10;;;;;;5986842;29;20462;-72
2023/03/25 10:14:20;;;;;;;10.65;1.60;;;19.10;46.90;;;;;;5987100;29;20503;-72
2023/03/25 10:17:27;;;;;;;5.72;1.30;;;19.20;46.60;;;;;;5986498;29;20035;-72
2023/03/25 10:21:01;;;;;;;3.63;0.93;;;19.20;46.20;;;;;;5962411;29;20122;-72
2023/03/25 10:24:12;;;;;;;4.05;1.00;;;19.20;46.30;;;;;;5968436;29;20095;-72
2023/03/25 10:27:41;;;;;;;3.45;1.38;;;19.30;46.00;;;;;;5991916;29;20444;-73
2023/03/25 10:30:47;;;;;;;6.45;1.40;;;19.50;45.80;;;;;;5992394;29;20355;-72
2023/03/25 10:33:53;;;;;;;4.53;0.90;;;19.60;45.00;;;;;;5963740;29;20027;-72
2023/03/25 10:36:57;;;;;;;0.93;0.60;;;19.70;43.90;;;;;;5964193;29;20071;-73
2023/03/25 10:40:25;;;;;;;3.83;0.85;;;19.70;43.30;;;;;;6037494;29;20513;-73
2023/03/25 10:43:30;;;;;;;5.43;1.10;;;19.80;42.90;;;;;;6004848;29;20097;-72
2023/03/25 10:46:46;;;;;;;3.88;0.80;;;20.00;42.50;;;;;;6008613;29;20569;-72
2023/03/25 10:49:49;;;;;;;1.27;0.80;;;20.20;42.10;;;;;;6007063;29;20207;-72
2023/03/25 10:52:51;;;;;;;4.03;0.73;;;20.30;41.50;;;;;;6007821;29;20042;-71
2023/03/25 10:56:31;;;;;;;3.17;0.95;;;20.40;41.10;;;;;;6038285;29;20107;-72
2023/03/25 10:59:42;;;;;;;2.20;0.90;;;20.40;40.80;;;;;;5982905;29;20061;-71
2023/03/25 11:02:44;;;;;;;1.98;0.95;;;20.40;40.30;;;;;;5982483;29;20118;-73
2023/03/25 11:05:47;;;;;;;4.20;0.85;;;20.30;40.20;;;;;;5982196;29;20082;-72
2023/03/25 11:09:07;;;;;;;2.88;0.73;;;20.30;39.90;;;;;;5963557;29;20117;-71
2023/03/25 11:12:08;;;;;;;3.28;0.80;;;20.20;39.90;;;;;;5974593;29;20039;-71
2023/03/25 11:15:21;;;;;;;4.38;1.10;;;20.30;40.30;;;;;;5974158;29;20122;-74
2023/03/25 11:18:37;;;;;;;5.80;1.27;;;20.30;39.70;;;;;;5973992;29;20073;-73
2023/03/25 11:21:38;;;;;;;3.55;1.35;;;20.60;39.50;;;;;;5957912;29;20090;-71
2023/03/25 11:24:43;;;;;;;4.03;1.40;;;20.90;39.20;;;;;;5973479;29;20035;-72
2023/03/25 11:28:11;;;;;;;5.38;1.40;;;21.20;39.00;;;;;;5973607;29;20314;-71
2023/03/25 11:31:18;;;;;;;5.50;0.95;;;21.40;38.80;;;;;;5933697;30;20074;-71
2023/03/25 11:34:21;;;;;;;7.20;1.20;;;21.40;38.00;;;;;;5951598;29;20039;-70
2023/03/25 11:37:23;;;;;;;3.72;0.82;;;21.30;37.70;;;;;;5919657;30;20151;-71
2023/03/25 11:40:26;;;;;;;4.88;1.10;;;21.60;37.60;;;;;;5929667;30;20097;-72
2023/03/25 11:43:34;;;;;;;4.13;0.77;;;21.80;37.10;;;;;;5933868;29;20086;-71
2023/03/25 11:46:42;;;;;;;3.60;1.13;;;22.10;36.70;;;;;;5919778;30;20122;-72
2023/03/25 11:49:48;;;;;;;2.13;1.08;;;22.50;36.10;;;;;;5913712;30;20153;-72
2023/03/25 11:52:52;;;;;;;2.95;0.80;;;23.00;35.40;;;;;;5899495;30;20040;-73
2023/03/25 11:56:03;;;;;;;3.28;0.88;;;23.50;34.70;;;;;;5929178;29;20079;-72
2023/03/25 11:59:18;;;;;;;2.92;0.70;;;23.80;33.60;;;;;;5914123;30;20127;-72
2023/03/25 12:02:37;;;;;;;6.95;0.98;;;23.80;32.70;;;;;;5928352;29;20532;-73
2023/03/25 12:05:39;;;;;;;4.90;0.80;;;23.50;32.60;;;;;;5898760;30;20042;-73
2023/03/25 12:08:42;;;;;;;3.08;0.90;;;23.40;32.80;;;;;;5988262;29;20106;-72
2023/03/25 12:12:13;;;;;;;3.97;0.77;;;23.30;33.00;;;;;;5983305;29;20035;-72
2023/03/25 12:15:14;;;;;;;2.25;0.50;;;24.10;32.30;;;;;;5983482;29;20054;-72
2023/03/25 12:18:24;;;;;;;9.93;0.60;;;25.20;30.60;;;;;;5982389;29;20090;-72
2023/03/25 12:21:44;;;;;;;1.08;0.50;;;25.60;29.40;;;;;;6012947;29;20515;-74
2023/03/25 12:25:06;;;;;;;0.85;0.45;;;25.80;29.00;;;;;;6013018;29;20027;-73
2023/03/25 12:28:22;;;;;;;2.20;0.50;;;25.70;28.70;;;;;;5987540;29;20064;-72
2023/03/25 12:31:49;;;;;;;2.45;0.70;;;25.70;28.60;;;;;;5988144;29;20064;-73
2023/03/25 12:35:02;;;;;;;5.43;1.00;;;25.50;28.50;;;;;;5988130;29;20431;-72
2023/03/25 12:38:15;;;;;;;1.58;0.63;;;25.00;28.70;;;;;;5988166;29;20137;-72
2023/03/25 12:41:41;;;;;;;2.40;0.40;;;24.70;28.90;;;;;;5990138;29;20095;-72
2023/03/25 12:45:02;;;;;;;1.08;0.30;;;24.70;29.10;;;;;;5989118;29;20130;-75
2023/03/25 12:48:28;;;;;;;2.95;1.20;;;25.00;28.50;;;;;;5988411;29;20086;-73
2023/03/25 12:51:40;;;;;;;4.55;0.70;;;25.30;28.00;;;;;;5988719;29;20050;-73
2023/03/25 12:54:52;;;;;;;2.15;0.57;;;25.70;27.60;;;;;;6004063;29;20613;-72
2023/03/25 12:58:06;;;;;;;2.75;0.50;;;25.80;27.40;;;;;;5988253;29;20042;-74
2023/03/25 13:01:22;;;;;;;2.10;0.70;;;25.40;27.40;;;;;;6004892;29;20141;-74
2023/03/25 13:04:38;;;;;;;0.55;0.52;;;25.20;27.50;;;;;;5978386;29;20043;-73
2023/03/25 13:08:09;;;;;;;1.33;0.40;;;25.20;27.50;;;;;;6002310;29;20182;-74
2023/03/25 13:11:48;;;;;;;3.10;0.40;;;25.60;27.20;;;;;;5986917;29;20045;-73
2023/03/25 13:15:05;;;;;;;0.82;0.43;;;25.80;26.90;;;;;;5985054;29;20674;-74
2023/03/25 13:18:10;;;;;;;0.85;0.77;;;25.70;26.90;;;;;;6015675;29;20129;-74
2023/03/25 13:21:42;;;;;;;4.38;0.70;;;25.50;27.00;;;;;;5987668;29;20118;-73
2023/03/25 13:24:53;;;;;;;1.42;0.50;;;25.40;26.80;;;;;;6016488;29;20134;-72
2023/03/25 13:28:00;;;;;;;1.00;0.40;;;25.30;26.80;;;;;;6004766;29;20474;-74
2023/03/25 13:31:03;;;;;;;1.52;0.80;;;25.10;26.90;;;;;;5987637;29;20467;-75
2023/03/25 13:34:34;;;;;;;5.03;1.20;;;24.90;27.10;;;;;;5993975;29;20031;-74
2023/03/25 13:37:44;;;;;;;1.75;0.70;;;24.70;27.20;;;;;;5964767;29;20437;-73
2023/03/25 13:41:04;;;;;;;2.05;0.60;;;24.40;27.40;;;;;;5964711;29;20077;-73
2023/03/25 13:44:21;;;;;;;2.80;0.77;;;24.10;27.20;;;;;;5993858;29;20054;-73
2023/03/25 13:47:38;;;;;;;2.75;0.65;;;23.90;27.50;;;;;;5993520;29;20449;-74
2023/03/25 13:50:39;;;;;;;1.75;0.60;;;23.60;27.90;;;;;;5962422;29;20087;-72
2023/03/25 13:54:05;;;;;;;2.55;0.50;;;23.30;28.20;;;;;;5963444;29;20329;-72
2023/03/25 13:57:25;;;;;;;17.90;4.88;;;23.00;28.40;;;;;;5963248;29;20030;-73
2023/03/25 14:00:38;;;;;;;1.58;0.90;;;22.80;28.70;;;;;;5963302;29;20042;-73
2023/03/25 14:03:55;;;;;;;4.32;0.82;;;22.70;29.00;;;;;;5963310;29;20054;-73
2023/03/25 14:07:20;;;;;;;2.08;0.52;;;22.60;29.10;;;;;;5968230;29;20038;-74
2023/03/25 14:10:37;;;;;;;1.85;0.50;;;22.60;29.30;;;;;;5985131;29;20031;-74
2023/03/25 14:13:43;;;;;;;3.97;0.93;;;22.80;29.40;;;;;;5985092;29;20428;-74
2023/03/25 14:16:49;;;;;;;0.55;0.50;;;22.90;29.10;;;;;;5986035;29;20022;-75
2023/03/25 14:19:54;;;;;;;15.68;1.00;;;23.00;29.00;;;;;;5985404;29;20065;-72
2023/03/25 14:23:03;;;;;;;2.45;0.70;;;23.20;29.00;;;;;;6014312;29;20042;-73
2023/03/25 14:26:08;;;;;;;2.25;0.57;;;23.20;28.80;;;;;;5999670;29;20023;-72
2023/03/25 14:29:28;;;;;;;2.30;0.50;;;23.20;28.70;;;;;;5991376;29;20032;-74
2023/03/25 14:32:31;;;;;;;1.75;0.68;;;23.20;28.60;;;;;;6018559;29;20038;-73
2023/03/25 14:35:33;;;;;;;1.25;0.57;;;23.20;28.60;;;;;;6015411;29;20121;-74
2023/03/25 14:38:53;;;;;;;1.58;0.50;;;23.20;28.60;;;;;;6014191;29;20030;-73
2023/03/25 14:42:06;;;;;;;3.92;1.10;;;23.20;28.50;;;;;;5984941;29;20088;-74
2023/03/25 14:46:02;;;;;;;3.72;0.52;;;23.10;28.60;;;;;;6013881;29;20102;-73
2023/03/25 14:49:03;;;;;;;0.85;0.30;;;23.00;28.70;;;;;;5943232;29;20468;-73
2023/03/25 14:52:05;;;;;;;2.00;0.52;;;23.00;28.70;;;;;;5943716;29;20103;-72
2023/03/25 14:55:26;;;;;;;2.17;0.45;;;22.90;28.80;;;;;;5957604;29;20098;-74
2023/03/25 14:58:28;;;;;;;1.55;0.60;;;22.90;28.80;;;;;;5943577;29;20035;-73
2023/03/25 15:01:33;;;;;;;3.03;0.50;;;22.90;29.10;;;;;;5944013;29;20130;-73
2023/03/25 15:04:38;;;;;;;2.67;0.60;;;22.90;28.90;;;;;;5958821;29;20039;-73
2023/03/25 15:07:42;;;;;;;1.05;0.38;;;23.00;28.90;;;;;;5943758;29;20437;-73
2023/03/25 15:10:48;;;;;;;0.90;0.32;;;23.00;28.70;;;;;;5958431;29;20039;-74
2023/03/25 15:13:54;;;;;;;1.52;0.45;;;22.90;28.70;;;;;;5959117;29;20034;-72
2023/03/25 15:17:04;;;;;;;2.47;0.68;;;22.90;28.60;;;;;;5943234;29;20042;-72
2023/03/25 15:20:09;;;;;;;2.90;0.63;;;22.80;28.50;;;;;;5943122;29;20126;-71
2023/03/25 15:23:41;;;;;;;0.90;0.38;;;22.70;28.50;;;;;;5968170;29;20678;-70
2023/03/25 15:31:36;;;;;;;4.20;0.50;;;22.60;28.60;;;;;;5984435;29;20034;-72
2023/03/25 15:35:02;;;;;;;1.15;0.75;;;22.40;28.70;;;;;;6012760;29;20057;-71
2023/03/25 15:38:17;;;;;;;2.58;0.50;;;22.30;29.00;;;;;;6012553;29;20094;-71
2023/03/25 15:41:56;;;;;;;2.67;0.50;;;22.10;29.10;;;;;;6013230;29;20125;-71
2023/03/25 15:45:10;;;;;;;1.75;0.60;;;22.00;29.20;;;;;;5984114;29;20448;-72
2023/03/25 15:48:17;;;;;;;1.65;0.68;;;21.90;29.30;;;;;;6011819;29;20447;-72
2023/03/25 15:51:26;;;;;;;1.75;0.50;;;21.80;29.30;;;;;;6013343;29;20095;-73
2023/03/25 15:54:47;;;;;;;3.72;0.60;;;21.70;29.40;;;;;;5984403;29;20128;-72
2023/03/25 15:57:54;;;;;;;1.23;0.80;;;21.60;29.50;;;;;;5983976;29;20030;-71
2023/03/25 16:05:22;;;;;;;4.97;0.77;;;21.50;29.80;;;;;;5982904;29;20392;-72
2023/03/25 16:08:37;;;;;;;3.25;1.20;;;21.50;29.90;;;;;;5983385;29;20018;-74
2023/03/25 16:11:45;;;;;;;4.15;1.10;;;21.50;30.40;;;;;;5982498;29;20031;-71
2023/03/25 16:14:47;;;;;;;2.63;0.70;;;21.50;29.90;;;;;;5981959;29;20464;-72
2023/03/25 16:17:49;;;;;;;9.93;1.33;;;21.50;30.00;;;;;;5983248;29;20483;-72
2023/03/25 16:20:58;;;;;;;1.00;0.63;;;21.50;30.00;;;;;;5983180;29;20139;-72
2023/03/25 16:24:03;;;;;;;5.75;0.77;;;21.40;30.00;;;;;;5983407;29;20030;-71
2023/03/25 16:27:10;;;;;;;2.65;0.80;;;21.40;30.10;;;;;;5983176;29;20046;-74
2023/03/25 16:30:37;;;;;;;7.63;0.93;;;21.40;30.10;;;;;;6012106;29;20075;-76
2023/03/25 16:33:39;;;;;;;6.53;1.10;;;21.40;30.20;;;;;;5983492;29;20062;-74
2023/03/25 16:36:46;;;;;;;3.58;1.23;;;21.50;30.20;;;;;;5985772;29;20030;-74
2023/03/25 16:39:57;;;;;;;7.85;1.30;;;21.50;30.20;;;;;;5987771;29;20034;-73
2023/03/25 16:43:11;;;;;;;3.28;0.70;;;21.40;30.20;;;;;;5986709;29;20042;-73
2023/03/25 16:46:14;;;;;;;2.72;0.70;;;21.40;30.20;;;;;;5987856;29;20038;-74
2023/03/25 16:49:29;;;;;;;1.83;0.70;;;21.30;30.30;;;;;;5987786;29;20102;-75
2023/03/25 16:52:33;;;;;;;2.92;0.90;;;21.30;30.30;;;;;;5986593;29;20105;-74
2023/03/25 16:55:48;;;;;;;3.63;0.70;;;21.20;30.40;;;;;;5988501;29;20395;-74
2023/03/25 16:59:06;;;;;;;5.22;1.05;;;21.10;30.60;;;;;;6016800;29;20034;-74
2023/03/25 17:02:25;;;;;;;1.50;0.70;;;21.00;30.80;;;;;;5987801;29;20038;-75
2023/03/25 17:05:28;;;;;;;2.95;0.90;;;20.90;31.10;;;;;;6017634;29;20039;-73
2023/03/25 17:08:30;;;;;;;3.20;0.80;;;20.80;31.40;;;;;;5987772;29;20458;-73
2023/03/25 17:11:31;;;;;;;4.80;1.05;;;20.70;31.70;;;;;;5987838;29;20022;-72
2023/03/25 17:14:36;;;;;;;5.07;1.00;;;20.70;31.90;;;;;;5986230;29;20030;-73
2023/03/25 17:17:48;;;;;;;6.57;0.95;;;20.60;32.00;;;;;;5994818;29;20091;-72
2023/03/25 17:20:54;;;;;;;3.55;0.77;;;20.50;32.20;;;;;;5975518;29;20027;-72
2023/03/25 17:24:01;;;;;;;4.15;1.27;;;20.50;32.40;;;;;;5980948;29;20057;-72